Mount Vernon, Virginia
Current Conditions -  °F | °C
As of 10:58 PM on Tuesday 27 Jan 2015 (Local Time) from KDAA Reporting Station
Clear Clear  
Wind Chill: -7°   Ceiling: Unl
Heat Index: -2°   Visibility: 10mi
Dew Point: -9°   Wind: 12mph
Humidity: 58%   Direction: 310°NW
Pressure: 29.98"   Gusts: NA
Location:  38.71°N, 77.08°W
Report Text: KDAA 280358Z AUTO 31010KT 10SM CLR M02/M09 A2998 RMK AO2 SLP156 T10191091
Loading
Personal Weather Stations






























Interactive Weather Map New forecast layout! Learn more

10-Day Weather Forecast

Advertisements
Track Severe Weather on mobile